الصفحة الرئيسية
METAR-TAF:

METAR-TAF

مطار :

باتام, إندونيسيا

دائرة عرض: 01-07-15N, خط طول: 104-07-07E, ارتفاع: 38 متر

مراقبة الطقس الحالي

تاريخ ووقت الإصدار 27 دقيقة قبل الساعة 08:00UTC
ريح 5 عقدة من الجنوب الشرقي
درجة الحرارة 31°درجة مئوية
الرطوبة 71%
ضغط 1009 hPa
الرؤية 10 كم أو أكثر
غيوم متفرقة على ارتفاع 1400 قدم

METAR: WIDD 260800Z 14005KT 9999 SCT014 31/25 Q1009 NOSIG

زمن: 15:27 (08:27 UTC)

توقعات

تاريخ ووقت الإصدار 3ساعات و 27 دقيقة قبل الساعة 05:00UTC
التوقعات صالحة من26 الساعة 06 UTC إلى 27 الساعة 06 UTC
ريح 7 عقدة من الشرق/الشمال الشرقي
الرؤية: 9000 متر
غيوم متفرقة على ارتفاع 1400 قدم

TAF: WIDD 260500Z 2606/2706 07007KT 9000 SCT014

أرصاد الطقس والتوقعات من أكثر من 4000 مطار (تقارير الطقس للمطار METAR والتنبؤ بالطقس بالمطارTAF).

المحطات المتاحة هي النقط الصفراء والحمراء على الخريطة.

حرك المؤشر فوق النقطة لمعرفة اسم المحطة.

ثم انقر لمعرفة أرصاد وتوقعات الطقس.

لتغيير الخارطة: اضغط على الأزرار الخضراء مع رمز الصليب الأسود للتكبير. على الزر الأخضر مع شرطة للتصغير، أو على الأسهم الخضراء للخرائط المجاورة.


METAR-TAF: